Time;durP1;ratioP1;P1;durP2;ratioP2;P2;SDS_P1;SDS_P2;PMS_P1;PMS_P2;Temp;Humidity;BMP_temperature;BMP_pressure;BME280_temperature;BME280_humidity;BME280_pressure;Samples;Min_cycle;Max_cycle;Signal;HPM_P1;HPM_P2
2022/07/23 00:02:24;;;;;;;16.27;15.07;;;;;;;-141.48;100.00;69781.59;4951242;30;20511;-64
2022/07/23 00:04:54;;;;;;;17.58;16.40;;;;;;;-141.48;100.00;69781.59;4950901;30;20037;-64
2022/07/23 00:07:25;;;;;;;17.48;15.73;;;;;;;-141.48;100.00;69781.59;4951126;30;20031;-63
2022/07/23 00:09:55;;;;;;;14.93;13.82;;;;;;;-141.48;100.00;69781.59;4950619;30;20088;-64
2022/07/23 00:12:26;;;;;;;16.08;14.95;;;;;;;-141.48;100.00;69781.59;4951046;30;20035;-64
2022/07/23 00:14:56;;;;;;;16.35;15.05;;;;;;;-141.48;100.00;69781.59;4950726;30;20393;-64
2022/07/23 00:17:27;;;;;;;16.00;14.80;;;;;;;-141.48;100.00;69781.59;4949732;30;20019;-65
2022/07/23 00:19:57;;;;;;;18.40;16.52;;;;;;;-141.48;100.00;69781.59;4951124;30;20114;-64
2022/07/23 00:22:29;;;;;;;27.40;16.88;;;;;;;-141.48;100.00;69781.59;4950835;30;20477;-65
2022/07/23 00:25:02;;;;;;;14.77;13.55;;;;;;;-141.48;100.00;69781.59;4949398;30;20122;-65
2022/07/23 00:27:32;;;;;;;15.43;14.32;;;;;;;-141.48;100.00;69781.59;4950907;30;20031;-65
2022/07/23 00:30:03;;;;;;;18.15;16.10;;;;;;;-141.48;100.00;69781.59;4950945;30;20507;-65
2022/07/23 00:32:50;;;;;;;21.15;16.35;;;;;;;-141.48;100.00;69781.59;4950860;30;20027;-64
2022/07/23 00:35:21;;;;;;;15.27;13.77;;;;;;;-141.48;100.00;69781.59;4950550;30;20042;-66
2022/07/23 00:37:52;;;;;;;16.92;13.75;;;;;;;-141.48;100.00;69781.59;4964491;29;20099;-64
2022/07/23 00:40:23;;;;;;;15.60;14.40;;;;;;;-141.48;100.00;69781.59;4950867;30;20035;-64
2022/07/23 00:42:54;;;;;;;16.02;14.52;;;;;;;-141.48;100.00;69781.59;4950885;30;20438;-64
2022/07/23 00:45:24;;;;;;;17.05;15.23;;;;;;;-141.48;100.00;69781.59;4950376;30;20043;-64
2022/07/23 00:47:55;;;;;;;16.67;15.15;;;;;;;-141.48;100.00;69781.59;4950839;30;20027;-64
2022/07/23 00:50:26;;;;;;;14.50;13.30;;;;;;;-141.48;100.00;69781.59;4950754;30;20031;-65
2022/07/23 00:52:56;;;;;;;15.77;14.63;;;;;;;-141.48;100.00;69781.59;4950843;30;20024;-64
2022/07/23 00:55:27;;;;;;;17.13;15.77;;;;;;;-141.48;100.00;69781.59;4950375;30;20440;-65
2022/07/23 00:57:58;;;;;;;16.10;14.65;;;;;;;-141.48;100.00;69781.59;4950632;30;20028;-63
2022/07/23 01:00:29;;;;;;;14.73;13.35;;;;;;;-141.48;100.00;69781.59;4950798;30;20040;-63
2022/07/23 01:02:59;;;;;;;15.27;14.00;;;;;;;-141.48;100.00;69781.59;4949362;30;20088;-63
2022/07/23 01:05:30;;;;;;;17.20;15.95;;;;;;;-141.48;100.00;69781.59;4950515;30;20043;-65
2022/07/23 01:08:00;;;;;;;15.82;14.43;;;;;;;-141.48;100.00;69781.59;4950426;30;20103;-64
2022/07/23 01:10:31;;;;;;;15.13;14.05;;;;;;;-141.48;100.00;69781.59;4950615;30;20035;-64
2022/07/23 01:13:04;;;;;;;17.27;15.95;;;;;;;-141.48;100.00;69781.59;4950507;30;20546;-66
2022/07/23 01:15:37;;;;;;;16.45;15.15;;;;;;;-141.48;100.00;69781.59;4950347;30;20035;-64
2022/07/23 01:18:08;;;;;;;15.40;14.10;;;;;;;-141.48;100.00;69781.59;4950518;30;20035;-65
2022/07/23 01:20:38;;;;;;;18.50;16.73;;;;;;;-141.48;100.00;69781.59;4949020;30;20566;-65
2022/07/23 01:23:09;;;;;;;16.27;15.00;;;;;;;-141.48;100.00;69781.59;4953210;29;20469;-65
2022/07/23 01:25:48;;;;;;;16.90;15.57;;;;;;;-141.48;100.00;69781.59;4953795;30;20039;-65
2022/07/23 01:28:19;;;;;;;19.42;16.67;;;;;;;-141.48;100.00;69781.59;4952545;30;20023;-65
2022/07/23 01:30:49;;;;;;;16.63;15.13;;;;;;;-141.48;100.00;69781.59;4952753;30;20505;-65
2022/07/23 01:33:20;;;;;;;20.30;18.58;;;;;;;-141.48;100.00;69781.59;4954200;30;20408;-64
2022/07/23 01:35:50;;;;;;;15.40;14.30;;;;;;;-141.48;100.00;69781.59;4967482;29;20038;-65
2022/07/23 01:38:21;;;;;;;19.25;17.10;;;;;;;-141.48;100.00;69781.59;4953557;30;20104;-65
2022/07/23 01:40:51;;;;;;;18.17;16.35;;;;;;;-141.48;100.00;69781.59;4953641;30;20043;-64
2022/07/23 01:43:21;;;;;;;17.38;15.52;;;;;;;-141.48;100.00;69781.59;4953323;30;20027;-65
2022/07/23 01:45:52;;;;;;;18.52;17.15;;;;;;;-141.48;100.00;69781.59;4953677;30;20030;-65
2022/07/23 01:48:22;;;;;;;16.65;15.25;;;;;;;-141.48;100.00;69781.59;4953522;30;20069;-65
2022/07/23 01:50:52;;;;;;;16.75;15.25;;;;;;;-141.48;100.00;69781.59;4951894;30;20035;-64
2022/07/23 01:53:23;;;;;;;16.65;15.45;;;;;;;-141.48;100.00;69781.59;4953124;30;20100;-64
2022/07/23 01:55:53;;;;;;;18.40;16.65;;;;;;;-141.48;100.00;69781.59;4953287;30;20030;-66
2022/07/23 01:58:25;;;;;;;16.58;15.20;;;;;;;-141.48;100.00;69781.59;4953866;30;20420;-65
2022/07/23 02:00:55;;;;;;;16.90;15.43;;;;;;;-141.48;100.00;69781.59;4953417;30;20400;-64
2022/07/23 02:03:26;;;;;;;16.23;14.95;;;;;;;-141.48;100.00;69781.59;4953018;30;20023;-65
2022/07/23 02:05:56;;;;;;;18.33;16.92;;;;;;;-141.48;100.00;69781.59;4953118;30;20085;-65
2022/07/23 02:08:27;;;;;;;16.88;15.18;;;;;;;-141.48;100.00;69781.59;4966860;29;20369;-64
2022/07/23 02:10:57;;;;;;;16.95;15.63;;;;;;;-141.48;100.00;69781.59;4951795;29;20481;-65
2022/07/23 02:13:29;;;;;;;16.33;15.10;;;;;;;-141.48;100.00;69781.59;4952823;30;20046;-67
2022/07/23 02:15:59;;;;;;;14.88;13.65;;;;;;;-141.48;100.00;69781.59;4952971;30;20076;-66
2022/07/23 02:18:29;;;;;;;15.57;14.25;;;;;;;-141.48;100.00;69781.59;4953101;30;20133;-64
2022/07/23 02:21:00;;;;;;;15.65;14.38;;;;;;;-141.48;100.00;69781.59;4952584;30;20058;-66
2022/07/23 02:23:30;;;;;;;13.73;12.48;;;;;;;-141.48;100.00;69781.59;4952786;30;20037;-63
2022/07/23 02:26:01;;;;;;;15.88;14.27;;;;;;;-141.48;100.00;69781.59;4951531;30;20023;-64
2022/07/23 02:28:31;;;;;;;15.30;14.15;;;;;;;-141.48;100.00;69781.59;4951717;30;20446;-64
2022/07/23 02:31:02;;;;;;;11.02;10.32;;;;;;;-141.48;100.00;69781.59;4952858;30;20035;-64
2022/07/23 02:33:33;;;;;;;15.20;13.93;;;;;;;-141.48;100.00;69781.59;4951779;29;20027;-65
2022/07/23 02:36:04;;;;;;;16.52;15.20;;;;;;;-141.48;100.00;69781.59;4952753;30;20031;-65
2022/07/23 02:38:35;;;;;;;14.15;13.15;;;;;;;-141.48;100.00;69781.59;4952847;30;20402;-65
2022/07/23 02:41:05;;;;;;;14.98;13.73;;;;;;;-141.48;100.00;69781.59;4952754;30;20024;-65
2022/07/23 02:43:36;;;;;;;15.77;14.30;;;;;;;-141.48;100.00;69781.59;4950964;30;20034;-63
2022/07/23 02:46:06;;;;;;;14.85;13.48;;;;;;;-141.48;100.00;69781.59;4952321;30;20020;-65
2022/07/23 02:48:36;;;;;;;15.38;13.63;;;;;;;-141.48;100.00;69781.59;4951024;30;20063;-65
2022/07/23 02:51:07;;;;;;;14.43;13.38;;;;;;;-141.48;100.00;69781.59;4952457;30;20036;-65
2022/07/23 02:53:37;;;;;;;13.32;12.43;;;;;;;-141.48;100.00;69781.59;4952216;30;20035;-65
2022/07/23 02:56:08;;;;;;;16.45;15.35;;;;;;;-141.48;100.00;69781.59;4950880;30;20106;-65
2022/07/23 02:58:39;;;;;;;14.70;13.60;;;;;;;-141.48;100.00;69781.59;4952201;30;20101;-65
2022/07/23 03:01:09;;;;;;;14.02;12.88;;;;;;;-141.48;100.00;69781.59;4950822;30;20031;-65
2022/07/23 03:03:40;;;;;;;17.13;14.18;;;;;;;-141.48;100.00;69781.59;4951969;30;20067;-65
2022/07/23 03:06:10;;;;;;;15.85;14.65;;;;;;;-141.48;100.00;69781.59;4952094;30;20023;-65
2022/07/23 03:08:40;;;;;;;16.83;15.15;;;;;;;-141.48;100.00;69781.59;4952137;30;20062;-65
2022/07/23 03:11:11;;;;;;;16.52;15.23;;;;;;;-141.48;100.00;69781.59;4951920;30;20036;-65
2022/07/23 03:13:41;;;;;;;15.73;14.32;;;;;;;-141.48;100.00;69781.59;4951848;30;20039;-65
2022/07/23 03:16:12;;;;;;;13.68;12.57;;;;;;;-141.48;100.00;69781.59;4951993;30;20118;-65
2022/07/23 03:18:42;;;;;;;14.57;13.68;;;;;;;-141.48;100.00;69781.59;4952066;30;20114;-65
2022/07/23 03:21:12;;;;;;;14.52;12.80;;;;;;;-141.48;100.00;69781.59;4951806;30;20042;-65
2022/07/23 03:23:43;;;;;;;14.50;13.23;;;;;;;-141.48;100.00;69781.59;4951517;30;20031;-65
2022/07/23 03:26:13;;;;;;;13.00;11.77;;;;;;;-141.48;100.00;69781.59;4951800;30;20069;-65
2022/07/23 03:28:44;;;;;;;17.05;15.77;;;;;;;-141.48;100.00;69781.59;4952225;30;20037;-65
2022/07/23 03:31:14;;;;;;;15.38;14.15;;;;;;;-141.48;100.00;69781.59;4951881;30;20023;-65
2022/07/23 03:33:45;;;;;;;16.98;15.68;;;;;;;-141.48;100.00;69781.59;4951489;30;20108;-66
2022/07/23 03:36:15;;;;;;;13.23;12.23;;;;;;;-141.48;100.00;69781.59;4950250;30;20114;-65
2022/07/23 03:38:46;;;;;;;16.02;14.60;;;;;;;-141.48;100.00;69781.59;4951737;30;20061;-65
2022/07/23 03:41:16;;;;;;;15.52;14.38;;;;;;;-141.48;100.00;69781.59;4951521;30;20031;-65
2022/07/23 03:43:47;;;;;;;14.57;13.52;;;;;;;-141.48;100.00;69781.59;4951250;30;20504;-64
2022/07/23 03:46:18;;;;;;;13.98;12.98;;;;;;;-141.48;100.00;69781.59;4950734;29;20038;-65
2022/07/23 03:48:48;;;;;;;17.20;13.50;;;;;;;-141.48;100.00;69781.59;4951274;30;20118;-66
2022/07/23 03:51:19;;;;;;;14.95;13.95;;;;;;;-141.48;100.00;69781.59;4951317;30;20039;-66
2022/07/23 03:53:49;;;;;;;14.55;13.50;;;;;;;-141.48;100.00;69781.59;4951165;30;20027;-65
2022/07/23 03:56:19;;;;;;;15.65;14.27;;;;;;;-141.48;100.00;69781.59;4951184;30;20032;-66
2022/07/23 03:58:50;;;;;;;15.82;13.05;;;;;;;-141.48;100.00;69781.59;4950122;30;20525;-64
2022/07/23 04:01:20;;;;;;;15.90;14.68;;;;;;;-141.48;100.00;69781.59;4951253;30;20023;-65
2022/07/23 04:03:50;;;;;;;16.38;13.70;;;;;;;-141.48;100.00;69781.59;4950930;30;20031;-65
2022/07/23 04:06:21;;;;;;;14.30;13.02;;;;;;;-141.48;100.00;69781.59;4951216;30;20475;-65
2022/07/23 04:08:51;;;;;;;14.85;13.38;;;;;;;-141.48;100.00;69781.59;4951291;30;20038;-65
2022/07/23 04:11:22;;;;;;;17.45;16.20;;;;;;;-141.48;100.00;69781.59;4950989;30;20024;-65
2022/07/23 04:13:52;;;;;;;16.42;15.15;;;;;;;-141.48;100.00;69781.59;4951071;30;20035;-66
2022/07/23 04:16:23;;;;;;;15.85;14.70;;;;;;;-141.48;100.00;69781.59;4951003;30;20226;-63
2022/07/23 04:18:53;;;;;;;16.45;14.98;;;;;;;-141.48;100.00;69781.59;4950981;30;20409;-64
2022/07/23 04:21:24;;;;;;;16.30;15.00;;;;;;;-141.48;100.00;69781.59;4950981;30;20038;-65
2022/07/23 04:23:54;;;;;;;16.52;15.13;;;;;;;-141.48;100.00;69781.59;4950747;30;20496;-65
2022/07/23 04:26:25;;;;;;;17.67;16.20;;;;;;;-141.48;100.00;69781.59;4951449;30;20053;-65
2022/07/23 04:28:55;;;;;;;15.70;14.38;;;;;;;-141.48;100.00;69781.59;4951148;30;20035;-64
2022/07/23 04:31:26;;;;;;;15.07;13.75;;;;;;;-141.48;100.00;69781.59;4950888;30;20031;-65
2022/07/23 04:33:56;;;;;;;18.20;16.40;;;;;;;-141.48;100.00;69781.59;4950483;30;20035;-65
2022/07/23 04:36:26;;;;;;;14.15;13.02;;;;;;;-141.48;100.00;69781.59;4949324;30;20039;-65
2022/07/23 04:38:57;;;;;;;16.42;15.23;;;;;;;-141.48;100.00;69781.59;4951051;30;20117;-66
2022/07/23 04:41:27;;;;;;;17.63;16.17;;;;;;;-141.48;100.00;69781.59;4950792;30;20035;-65
2022/07/23 04:43:58;;;;;;;16.17;15.00;;;;;;;-141.48;100.00;69781.59;4950547;30;20027;-65
2022/07/23 04:46:28;;;;;;;14.45;13.38;;;;;;;-141.48;100.00;69781.59;4964648;29;20378;-66
2022/07/23 04:48:59;;;;;;;13.85;12.85;;;;;;;-141.48;100.00;69781.59;4950645;30;20550;-64
2022/07/23 04:51:29;;;;;;;15.35;13.57;;;;;;;-141.48;100.00;69781.59;4988444;24;20114;-68
2022/07/23 04:53:59;;;;;;;14.30;13.23;;;;;;;-141.48;100.00;69781.59;4987883;29;20026;-69
2022/07/23 04:56:30;;;;;;;13.30;12.40;;;;;;;-141.48;100.00;69781.59;4984368;29;20510;-68
2022/07/23 04:59:00;;;;;;;15.73;14.57;;;;;;;-141.48;100.00;69781.59;4973319;29;20468;-68
2022/07/23 05:01:31;;;;;;;14.82;13.73;;;;;;;-141.48;100.00;69781.59;4972947;29;20415;-68
2022/07/23 05:04:01;;;;;;;13.57;12.68;;;;;;;-141.48;100.00;69781.59;4972925;29;20026;-68
2022/07/23 05:06:31;;;;;;;13.30;12.18;;;;;;;-141.48;100.00;69781.59;4973118;29;20038;-67
2022/07/23 05:09:02;;;;;;;15.05;13.95;;;;;;;-141.48;100.00;69781.59;4972945;29;20495;-67
2022/07/23 05:11:33;;;;;;;13.52;12.32;;;;;;;-141.48;100.00;69781.59;4956628;29;20075;-68
2022/07/23 05:14:03;;;;;;;12.80;11.85;;;;;;;-141.48;100.00;69781.59;4972438;29;20065;-67
2022/07/23 05:16:33;;;;;;;13.40;12.30;;;;;;;-141.48;100.00;69781.59;4956541;29;20030;-68
2022/07/23 05:19:04;;;;;;;13.55;12.23;;;;;;;-141.48;100.00;69781.59;4956673;29;20502;-68
2022/07/23 05:21:34;;;;;;;13.32;12.25;;;;;;;-141.48;100.00;69781.59;4972875;29;20114;-68
2022/07/23 05:24:05;;;;;;;13.23;12.23;;;;;;;-141.48;100.00;69781.59;4972609;29;20031;-67
2022/07/23 05:26:36;;;;;;;15.57;14.02;;;;;;;-141.48;100.00;69781.59;4972523;29;20033;-68
2022/07/23 05:29:06;;;;;;;12.88;11.95;;;;;;;-141.48;100.00;69781.59;4972740;29;20110;-69
2022/07/23 05:31:36;;;;;;;12.18;11.00;;;;;;;-141.48;100.00;69781.59;4972542;29;20485;-68
2022/07/23 05:34:07;;;;;;;14.80;12.13;;;;;;;-141.48;100.00;69781.59;4956151;29;20034;-68
2022/07/23 05:36:37;;;;;;;13.18;11.98;;;;;;;-141.48;100.00;69781.59;4972762;29;20030;-67
2022/07/23 05:39:08;;;;;;;12.55;11.43;;;;;;;-141.48;100.00;69781.59;4972630;29;20526;-66
2022/07/23 05:41:38;;;;;;;13.18;12.30;;;;;;;-141.48;100.00;69781.59;4972525;29;20121;-68
2022/07/23 05:44:08;;;;;;;11.52;10.73;;;;;;;-141.48;100.00;69781.59;4971963;29;20027;-68
2022/07/23 05:46:39;;;;;;;14.68;11.40;;;;;;;-141.48;100.00;69781.59;4972649;29;20776;-69
2022/07/23 05:49:09;;;;;;;16.05;11.45;;;;;;;-141.48;100.00;69781.59;4972323;29;20041;-69
2022/07/23 05:51:40;;;;;;;12.82;10.02;;;;;;;-141.48;100.00;69781.59;4972492;29;20031;-69
2022/07/23 05:54:11;;;;;;;10.27;9.40;;;;;;;-141.48;100.00;69781.59;4972667;29;20401;-68
2022/07/23 05:56:42;;;;;;;10.35;9.65;;;;;;;-141.48;100.00;69781.59;4972233;29;20173;-69
2022/07/23 05:59:14;;;;;;;11.15;10.23;;;;;;;-141.48;100.00;69781.59;4972181;29;20038;-69
2022/07/23 06:01:44;;;;;;;12.60;11.65;;;;;;;-141.48;100.00;69781.59;4972189;29;20489;-67
2022/07/23 06:04:15;;;;;;;9.77;8.95;;;;;;;-141.48;100.00;69781.59;4971740;29;20033;-69
2022/07/23 06:06:45;;;;;;;9.32;8.73;;;;;;;-141.48;100.00;69781.59;4972069;29;20031;-73
2022/07/23 06:09:16;;;;;;;10.32;9.63;;;;;;;-141.48;100.00;69781.59;4970985;29;20094;-68
2022/07/23 06:11:46;;;;;;;12.13;10.98;;;;;;;-141.48;100.00;69781.59;4971862;29;20045;-68
2022/07/23 06:14:16;;;;;;;11.55;10.60;;;;;;;-141.48;100.00;69781.59;4971398;29;20035;-68
2022/07/23 06:16:47;;;;;;;12.80;10.80;;;;;;;-141.48;100.00;69781.59;4955592;29;20023;-69
2022/07/23 06:19:17;;;;;;;11.40;10.50;;;;;;;-141.48;100.00;69781.59;4955627;29;20023;-69
2022/07/23 06:21:48;;;;;;;11.88;11.07;;;;;;;-141.48;100.00;69781.59;4971687;29;20031;-68
2022/07/23 06:24:18;;;;;;;11.25;10.30;;;;;;;-141.48;100.00;69781.59;4971495;29;20066;-68
2022/07/23 06:26:49;;;;;;;11.25;10.45;;;;;;;-141.48;100.00;69781.59;4971679;29;20149;-71
2022/07/23 06:29:19;;;;;;;10.88;10.07;;;;;;;-141.48;100.00;69781.59;4971658;29;20506;-69
2022/07/23 06:31:49;;;;;;;15.40;10.25;;;;;;;-141.48;100.00;69781.59;4971545;29;20037;-68
2022/07/23 06:34:20;;;;;;;9.25;8.60;;;;;;;-141.48;100.00;69781.59;4971005;29;20022;-69
2022/07/23 06:36:50;;;;;;;11.65;10.73;;;;;;;-141.48;100.00;69781.59;4971379;29;20061;-67
2022/07/23 06:39:21;;;;;;;9.10;8.30;;;;;;;-141.48;100.00;69781.59;4971648;29;20055;-66
2022/07/23 06:41:52;;;;;;;10.68;9.65;;;;;;;-141.48;100.00;69781.59;4971503;29;20500;-66
2022/07/23 06:44:22;;;;;;;10.27;9.38;;;;;;;-141.48;100.00;69781.59;4954720;29;20113;-66
2022/07/23 06:46:52;;;;;;;14.43;10.88;;;;;;;-141.48;100.00;69781.59;4971202;29;20066;-66
2022/07/23 06:49:23;;;;;;;9.75;9.07;;;;;;;-141.48;100.00;69781.59;4971283;29;20122;-67
2022/07/23 06:51:53;;;;;;;9.80;9.27;;;;;;;-141.48;100.00;69781.59;4971250;29;20130;-66
2022/07/23 06:54:24;;;;;;;8.98;8.30;;;;;;;-141.48;100.00;69781.59;4954704;29;20033;-65
2022/07/23 06:56:54;;;;;;;9.05;8.43;;;;;;;-141.48;100.00;69781.59;4971036;29;20023;-65
2022/07/23 06:59:25;;;;;;;9.70;8.63;;;;;;;-141.48;100.00;69781.59;4971003;29;20109;-67
2022/07/23 07:01:55;;;;;;;9.30;8.52;;;;;;;-141.48;100.00;69781.59;4970831;29;20093;-66
2022/07/23 07:04:26;;;;;;;9.18;8.02;;;;;;;-141.48;100.00;69781.59;4970624;29;20095;-65
2022/07/23 07:06:56;;;;;;;10.98;8.10;;;;;;;-141.48;100.00;69781.59;4954856;29;20019;-66
2022/07/23 07:09:26;;;;;;;14.95;7.90;;;;;;;-141.48;100.00;69781.59;4971084;29;20542;-64
2022/07/23 07:11:57;;;;;;;7.43;6.90;;;;;;;-141.48;100.00;69781.59;4954819;29;20066;-65
2022/07/23 07:14:27;;;;;;;8.05;7.38;;;;;;;-141.48;100.00;69781.59;4970541;29;20084;-66
2022/07/23 07:16:58;;;;;;;7.30;6.85;;;;;;;-141.48;100.00;69781.59;4971145;29;20102;-66
2022/07/23 07:19:28;;;;;;;7.60;7.10;;;;;;;-141.48;100.00;69781.59;4970631;29;20035;-65
2022/07/23 07:21:59;;;;;;;7.47;6.75;;;;;;;-141.48;100.00;69781.59;4970706;29;20087;-66
2022/07/23 07:24:29;;;;;;;7.90;7.20;;;;;;;-141.48;100.00;69781.59;4970553;29;20041;-65
2022/07/23 07:27:00;;;;;;;6.15;5.82;;;;;;;-141.48;100.00;69781.59;4970363;29;20066;-65
2022/07/23 07:29:30;;;;;;;8.93;8.23;;;;;;;-141.48;100.00;69781.59;4970364;29;20030;-66
2022/07/23 07:32:01;;;;;;;6.70;6.20;;;;;;;-141.48;100.00;69781.59;4970674;29;20105;-65
2022/07/23 07:34:31;;;;;;;7.82;6.93;;;;;;;-141.48;100.00;69781.59;4970113;29;20118;-65
2022/07/23 07:37:01;;;;;;;6.53;6.13;;;;;;;-141.48;100.00;69781.59;4970486;29;20066;-65
2022/07/23 07:39:32;;;;;;;7.18;6.50;;;;;;;-141.48;100.00;69781.59;4970500;29;20035;-64
2022/07/23 07:42:02;;;;;;;6.20;5.88;;;;;;;-141.48;100.00;69781.59;4970477;29;20377;-63
2022/07/23 07:44:33;;;;;;;13.45;6.18;;;;;;;-141.48;100.00;69781.59;4970039;29;20118;-65
2022/07/23 07:47:03;;;;;;;5.57;5.13;;;;;;;-141.48;100.00;69781.59;4970069;29;20018;-66
2022/07/23 07:49:34;;;;;;;5.43;5.13;;;;;;;-141.48;100.00;69781.59;4970191;29;20031;-64
2022/07/23 07:52:06;;;;;;;5.95;5.55;;;;;;;-141.48;100.00;69781.59;4970346;29;20088;-64
2022/07/23 07:54:36;;;;;;;5.53;5.03;;;;;;;-141.48;100.00;69781.59;4969818;29;20374;-65
2022/07/23 07:57:07;;;;;;;7.47;6.85;;;;;;;-141.48;100.00;69781.59;4970005;29;20037;-62
2022/07/23 07:59:37;;;;;;;6.13;5.63;;;;;;;-141.48;100.00;69781.59;4970062;29;20507;-65
2022/07/23 08:02:08;;;;;;;6.20;5.80;;;;;;;-141.48;100.00;69781.59;4970031;29;20042;-65
2022/07/23 08:04:38;;;;;;;5.40;5.03;;;;;;;-141.48;100.00;69781.59;4969608;29;20031;-65
2022/07/23 08:07:08;;;;;;;7.57;6.97;;;;;;;-141.48;100.00;69781.59;4969890;29;20118;-65
2022/07/23 08:09:39;;;;;;;4.90;4.63;;;;;;;-141.48;100.00;69781.59;4970050;29;20019;-65
2022/07/23 08:12:09;;;;;;;6.05;5.45;;;;;;;-141.48;100.00;69781.59;4969792;29;20091;-67
2022/07/23 08:14:40;;;;;;;6.85;6.00;;;;;;;-141.48;100.00;69781.59;4953537;29;20030;-67
2022/07/23 08:17:10;;;;;;;6.05;5.57;;;;;;;-141.48;100.00;69781.59;4970384;29;20465;-63
2022/07/23 08:19:41;;;;;;;7.15;6.75;;;;;;;-141.48;100.00;69781.59;4970022;29;20062;-64
2022/07/23 08:22:11;;;;;;;8.63;6.65;;;;;;;-141.48;100.00;69781.59;4969875;29;20487;-64
2022/07/23 08:24:41;;;;;;;5.45;5.13;;;;;;;-141.48;100.00;69781.59;4969293;29;20488;-65
2022/07/23 08:27:12;;;;;;;5.88;5.57;;;;;;;-141.48;100.00;69781.59;4969710;29;20359;-65
2022/07/23 08:29:42;;;;;;;5.68;5.18;;;;;;;-141.48;100.00;69781.59;4970175;29;20472;-65
2022/07/23 08:32:13;;;;;;;7.63;6.30;;;;;;;-141.48;100.00;69781.59;4973447;29;20031;-65
2022/07/23 08:34:43;;;;;;;9.98;6.43;;;;;;;-141.48;100.00;69781.59;4959669;29;20496;-63
2022/07/23 08:37:13;;;;;;;7.93;7.32;;;;;;;-141.48;100.00;69781.59;4975722;29;20030;-65
2022/07/23 08:39:44;;;;;;;6.68;6.18;;;;;;;-141.48;100.00;69781.59;4975719;29;20105;-64
2022/07/23 08:42:14;;;;;;;7.28;5.30;;;;;;;-141.48;100.00;69781.59;4959577;29;20548;-64
2022/07/23 08:44:46;;;;;;;11.88;5.75;;;;;;;-141.48;100.00;69781.59;4975531;29;20035;-64
2022/07/23 08:47:17;;;;;;;5.90;5.53;;;;;;;-141.48;100.00;69781.59;4975870;29;20030;-65
2022/07/23 08:49:47;;;;;;;4.97;4.53;;;;;;;-141.48;100.00;69781.59;4975692;29;20365;-65
2022/07/23 08:52:18;;;;;;;9.57;7.28;;;;;;;-141.48;100.00;69781.59;4975708;29;20062;-65
2022/07/23 08:54:48;;;;;;;5.25;4.95;;;;;;;-141.48;100.00;69781.59;4959115;29;20118;-63
2022/07/23 08:57:19;;;;;;;6.18;5.00;;;;;;;-141.48;100.00;69781.59;4975122;29;20026;-64
2022/07/23 08:59:49;;;;;;;5.30;5.00;;;;;;;-141.48;100.00;69781.59;4975025;29;20493;-66
2022/07/23 09:02:20;;;;;;;5.30;4.53;;;;;;;-141.48;100.00;69781.59;4975245;29;20034;-65
2022/07/23 09:04:50;;;;;;;5.00;4.60;;;;;;;-141.48;100.00;69781.59;4975005;29;20034;-65
2022/07/23 09:07:21;;;;;;;6.22;5.63;;;;;;;-141.48;100.00;69781.59;4975231;29;20046;-66
2022/07/23 09:10:11;;;;;;;5.80;5.30;;;;;;;-141.48;100.00;69781.59;4975237;29;20087;-62
2022/07/23 09:12:42;;;;;;;5.22;4.85;;;;;;;-141.48;100.00;69781.59;4958705;29;20125;-66
2022/07/23 09:15:12;;;;;;;5.68;5.38;;;;;;;-141.48;100.00;69781.59;4974713;29;20115;-65
2022/07/23 09:17:43;;;;;;;7.35;6.60;;;;;;;-141.48;100.00;69781.59;4958921;29;20510;-65
2022/07/23 09:20:16;;;;;;;7.75;5.38;;;;;;;-141.48;100.00;69781.59;4975152;29;20033;-65
2022/07/23 09:22:47;;;;;;;6.05;5.65;;;;;;;-141.48;100.00;69781.59;4974946;29;20492;-66
2022/07/23 09:25:19;;;;;;;5.25;4.43;;;;;;;-141.48;100.00;69781.59;4974872;29;20107;-66
2022/07/23 09:27:55;;;;;;;5.80;5.43;;;;;;;-141.48;100.00;69781.59;4975095;29;20058;-66
2022/07/23 09:30:28;;;;;;;4.93;4.68;;;;;;;-141.48;100.00;69781.59;4974967;29;20062;-66
2022/07/23 09:33:09;;;;;;;7.82;7.25;;;;;;;-141.48;100.00;69781.59;4975034;29;20110;-65
2022/07/23 09:35:56;;;;;;;6.15;5.75;;;;;;;-141.48;100.00;69781.59;4974571;29;20037;-66
2022/07/23 09:38:26;;;;;;;5.75;5.25;;;;;;;-141.48;100.00;69781.59;4975002;29;20031;-66
2022/07/23 09:41:10;;;;;;;5.65;5.25;;;;;;;-141.48;100.00;69781.59;4974743;29;20027;-65
2022/07/23 09:43:41;;;;;;;5.07;4.68;;;;;;;-141.48;100.00;69781.59;4956372;29;20034;-66
2022/07/23 09:46:26;;;;;;;4.50;4.13;;;;;;;-141.48;100.00;69781.59;4971938;29;20027;-64
2022/07/23 09:48:56;;;;;;;5.28;4.78;;;;;;;-141.48;100.00;69781.59;4972014;29;20069;-66
2022/07/23 09:54:00;;;;;;;6.07;5.57;;;;;;;-141.48;100.00;69781.59;4971335;29;20047;-66
2022/07/23 09:56:33;;;;;;;4.75;4.53;;;;;;;-141.48;100.00;69781.59;4971680;29;20146;-66
2022/07/23 09:59:09;;;;;;;6.70;5.88;;;;;;;-141.48;100.00;69781.59;4971777;29;20034;-66
2022/07/23 10:01:39;;;;;;;5.38;5.07;;;;;;;-141.48;100.00;69781.59;4971788;29;20027;-66
2022/07/23 10:04:11;;;;;;;5.72;5.00;;;;;;;-141.48;100.00;69781.59;4971387;29;20029;-66
2022/07/23 10:06:45;;;;;;;5.88;5.32;;;;;;;-141.48;100.00;69781.59;4971553;29;20404;-66
2022/07/23 10:09:21;;;;;;;5.55;5.15;;;;;;;-141.48;100.00;69781.59;4971516;29;20041;-67
2022/07/23 10:11:56;;;;;;;4.88;4.57;;;;;;;-141.48;100.00;69781.59;4971634;29;20023;-66
2022/07/23 10:14:27;;;;;;;24.20;10.20;;;;;;;-141.48;100.00;69781.59;4955413;29;20051;-67
2022/07/23 10:16:58;;;;;;;7.95;5.70;;;;;;;-141.48;100.00;69781.59;4971144;29;20023;-66
2022/07/23 10:19:29;;;;;;;5.22;4.75;;;;;;;-141.48;100.00;69781.59;4971434;29;20046;-67
2022/07/23 10:22:02;;;;;;;6.20;5.70;;;;;;;-141.48;100.00;69781.59;4971418;29;20063;-66
2022/07/23 10:24:47;;;;;;;5.75;5.15;;;;;;;-141.48;100.00;69781.59;4971071;29;20058;-66
2022/07/23 10:27:30;;;;;;;4.55;3.85;;;;;;;-141.48;100.00;69781.59;4955041;29;20026;-65
2022/07/23 10:30:13;;;;;;;4.60;4.30;;;;;;;-141.48;100.00;69781.59;4971355;29;20034;-67
2022/07/23 10:33:22;;;;;;;3.28;3.17;;;;;;;-141.48;100.00;69781.59;4971317;29;20515;-64
2022/07/23 10:36:07;;;;;;;2.83;2.72;;;;;;;-141.48;100.00;69781.59;4966612;29;20428;-67
2022/07/23 10:38:50;;;;;;;3.58;3.38;;;;;;;-141.48;100.00;69781.59;4970911;29;20027;-67
2022/07/23 10:41:36;;;;;;;4.43;4.22;;;;;;;-141.48;100.00;69781.59;4971062;29;20026;-66
2022/07/23 10:44:11;;;;;;;3.75;3.47;;;;;;;-141.48;100.00;69781.59;4954544;29;20539;-66
2022/07/23 10:49:32;;;;;;;5.30;3.00;;;;;;;-141.48;100.00;69781.59;4971075;29;20043;-66
2022/07/23 10:52:15;;;;;;;2.10;2.08;;;;;;;-141.48;100.00;69781.59;4970721;29;20042;-66
2022/07/23 10:55:01;;;;;;;2.78;2.65;;;;;;;-141.48;100.00;69781.59;4969940;29;20026;-65
2022/07/23 10:57:50;;;;;;;3.63;3.33;;;;;;;-141.48;100.00;69781.59;4970704;29;20039;-65
2022/07/23 11:00:29;;;;;;;2.88;2.78;;;;;;;-141.48;100.00;69781.59;4970809;29;20023;-66
2022/07/23 11:03:01;;;;;;;2.70;2.60;;;;;;;-141.48;100.00;69781.59;4970544;29;20026;-67
2022/07/23 11:05:44;;;;;;;2.00;2.00;;;;;;;-141.48;100.00;69781.59;4970355;29;20031;-66
2022/07/23 11:08:20;;;;;;;2.70;2.13;;;;;;;-141.48;100.00;69781.59;4970412;29;20034;-66
2022/07/23 11:10:54;;;;;;;2.30;2.30;;;;;;;-141.48;100.00;69781.59;4970521;29;20496;-67
2022/07/23 11:13:24;;;;;;;2.45;2.28;;;;;;;-141.48;100.00;69781.59;4970036;29;20115;-66
2022/07/23 11:16:00;;;;;;;2.10;2.03;;;;;;;-141.48;100.00;69781.59;4970323;29;20503;-67
2022/07/23 11:18:40;;;;;;;2.67;2.58;;;;;;;-141.48;100.00;69781.59;4954110;29;20031;-67
2022/07/23 11:21:37;;;;;;;2.67;2.58;;;;;;;-141.48;100.00;69781.59;4970763;29;20072;-66
2022/07/23 11:24:09;;;;;;;1.95;1.95;;;;;;;-141.48;100.00;69781.59;4959661;29;20500;-67
2022/07/23 11:26:40;;;;;;;2.25;2.15;;;;;;;-141.48;100.00;69781.59;4954033;29;20031;-67